Time;durP1;ratioP1;P1;durP2;ratioP2;P2;SDS_P1;SDS_P2;PMS_P1;PMS_P2;Temp;Humidity;BMP_temperature;BMP_pressure;BME280_temperature;BME280_humidity;BME280_pressure;Samples;Min_cycle;Max_cycle;Signal;HPM_P1;HPM_P2
2022/05/30 00:02:24;;;;;;;6.32;2.83;;;;;;;11.95;94.76;99816.09;5067472;28;20036;-66
2022/05/30 00:04:50;;;;;;;3.60;2.67;;;;;;;11.92;95.52;99824.47;5067907;28;20063;-66
2022/05/30 00:07:15;;;;;;;5.13;2.70;;;;;;;11.91;95.87;99809.34;5052906;28;20036;-66
2022/05/30 00:09:41;;;;;;;6.45;2.58;;;;;;;11.87;94.86;99813.38;5048161;28;20036;-65
2022/05/30 00:12:06;;;;;;;5.50;2.80;;;;;;;11.77;95.85;99797.31;5059071;28;20495;-67
2022/05/30 00:14:33;;;;;;;4.63;2.35;;;;;;;11.90;95.91;99810.38;5067921;28;20024;-65
2022/05/30 00:16:58;;;;;;;8.40;3.53;;;;;;;11.83;96.14;99806.63;5066583;28;20031;-65
2022/05/30 00:19:24;;;;;;;4.25;3.17;;;;;;;11.78;96.71;99803.53;5067691;28;20032;-66
2022/05/30 00:21:50;;;;;;;3.47;2.60;;;;;;;11.66;96.61;99783.28;5068116;28;20020;-67
2022/05/30 00:24:15;;;;;;;7.05;3.13;;;;;;;11.79;96.46;99813.28;5066143;28;20060;-66
2022/05/30 00:26:41;;;;;;;4.88;3.05;;;;;;;11.66;95.84;99780.59;5048014;28;20032;-66
2022/05/30 00:29:07;;;;;;;6.28;2.90;;;;;;;11.72;95.94;99788.03;5061058;28;20087;-66
2022/05/30 00:31:35;;;;;;;4.32;2.70;;;;;;;11.72;95.88;99796.09;5046150;28;20076;-65
2022/05/30 00:34:01;;;;;;;5.97;3.00;;;;;;;11.66;96.37;99789.50;5048053;28;20040;-66
2022/05/30 00:36:26;;;;;;;4.75;2.80;;;;;;;11.70;96.19;99800.78;5047689;28;20116;-66
2022/05/30 00:38:52;;;;;;;4.57;2.88;;;;;;;11.68;96.47;99794.72;5062553;28;20635;-66
2022/05/30 00:41:18;;;;;;;4.88;3.72;;;;;;;11.60;97.06;99781.19;5066246;28;20445;-66
2022/05/30 00:43:47;;;;;;;4.22;2.55;;;;;;;11.69;96.69;99797.25;5050619;28;20033;-65
2022/05/30 00:46:15;;;;;;;5.78;2.80;;;;;;;11.69;96.00;99804.47;5045850;28;20808;-66
2022/05/30 00:48:57;;;;;;;3.67;2.75;;;;;;;11.68;95.27;99794.72;5047570;28;20724;-66
2022/05/30 00:51:31;;;;;;;6.07;3.33;;;;;;;11.69;95.57;99805.31;5061086;28;20521;-66
2022/05/30 00:53:59;;;;;;;3.72;2.88;;;;;;;11.61;95.48;99794.47;5067596;28;20469;-65
2022/05/30 00:56:29;;;;;;;4.72;2.97;;;;;;;11.60;95.68;99795.44;5067406;28;20028;-67
2022/05/30 00:58:56;;;;;;;6.40;3.50;;;;;;;11.64;95.53;99801.41;5060180;28;20501;-66
2022/05/30 01:01:21;;;;;;;3.92;3.40;;;;;;;11.62;96.53;99796.19;5047448;28;20040;-66
2022/05/30 01:06:42;;;;;;;5.90;3.80;;;;;;;11.55;96.35;99787.03;5047405;28;20354;-67
2022/05/30 01:09:11;;;;;;;5.35;3.65;;;;;;;11.61;96.41;99804.38;5047281;28;20087;-66
2022/05/30 01:12:05;;;;;;;6.00;4.00;;;;;;;11.52;97.04;99793.53;5047532;28;20509;-66
2022/05/30 01:14:35;;;;;;;4.90;3.65;;;;;;;11.57;97.10;99800.31;5047641;28;20051;-66
2022/05/30 01:17:02;;;;;;;6.20;4.40;;;;;;;11.50;97.93;99779.44;5065628;28;20020;-66
2022/05/30 01:19:46;;;;;;;12.73;4.60;;;;;;;11.53;97.56;99779.13;5067171;28;20066;-66
2022/05/30 01:22:32;;;;;;;6.40;4.53;;;;;;;11.55;97.81;99790.53;5067219;28;20366;-65
2022/05/30 01:25:24;;;;;;;6.35;4.43;;;;;;;11.53;98.35;99776.44;5067627;28;20559;-65
2022/05/30 01:28:10;;;;;;;6.78;4.28;;;;;;;11.53;98.62;99773.75;5049709;28;20048;-68
2022/05/30 01:30:38;;;;;;;5.43;3.75;;;;;;;11.54;98.87;99771.88;5056636;28;20033;-66
2022/05/30 01:33:04;;;;;;;8.15;3.83;;;;;;;11.52;98.42;99757.78;5062745;28;20371;-66
2022/05/30 01:35:30;;;;;;;5.53;4.30;;;;;;;11.59;98.37;99772.28;5057842;28;20021;-65
2022/05/30 01:37:57;;;;;;;6.35;4.93;;;;;;;11.53;98.45;99744.22;5053299;28;20059;-66
2022/05/30 01:40:24;;;;;;;6.32;4.68;;;;;;;11.61;98.58;99761.38;5069565;28;20029;-67
2022/05/30 01:42:49;;;;;;;7.93;5.40;;;;;;;11.62;99.03;99757.72;5053792;28;20025;-65
2022/05/30 01:45:15;;;;;;;6.53;5.25;;;;;;;11.58;98.91;99760.69;5051053;28;20025;-66
2022/05/30 01:47:41;;;;;;;7.15;5.35;;;;;;;11.63;98.17;99760.25;5050816;28;20395;-66
2022/05/30 01:50:06;;;;;;;8.77;5.50;;;;;;;11.64;98.06;99767.31;5050980;28;20040;-67
2022/05/30 01:52:33;;;;;;;5.70;4.60;;;;;;;11.70;97.34;99768.56;5051309;28;20025;-67
2022/05/30 01:54:58;;;;;;;6.00;5.40;;;;;;;11.66;96.66;99765.31;5049249;28;20040;-66
2022/05/30 01:57:24;;;;;;;7.57;5.93;;;;;;;11.65;96.62;99766.34;5056481;28;20043;-65
2022/05/30 01:59:49;;;;;;;6.40;5.18;;;;;;;11.62;97.42;99763.97;5070824;28;20551;-66
2022/05/30 02:02:15;;;;;;;7.60;5.18;;;;;;;11.61;96.94;99762.25;5070710;28;20548;-65
2022/05/30 02:04:40;;;;;;;8.18;5.53;;;;;;;11.57;96.53;99772.44;5070305;28;20049;-66
2022/05/30 02:07:06;;;;;;;7.95;5.80;;;;;;;11.55;97.31;99777.09;5070583;28;20024;-65
2022/05/30 02:09:31;;;;;;;9.02;6.07;;;;;;;11.48;97.54;99764.44;5070787;28;20028;-65
2022/05/30 02:11:57;;;;;;;7.22;6.25;;;;;;;11.47;98.32;99774.38;5062600;28;20028;-65
2022/05/30 02:14:23;;;;;;;6.57;5.90;;;;;;;11.44;98.41;99776.50;5060089;28;20483;-66
2022/05/30 02:17:00;;;;;;;7.10;5.90;;;;;;;11.32;98.08;99770.50;5061508;28;20032;-67
2022/05/30 02:19:34;;;;;;;8.73;6.00;;;;;;;11.37;98.48;99787.03;5050364;28;20490;-66
2022/05/30 02:22:00;;;;;;;10.00;6.72;;;;;;;11.37;98.07;99781.66;5050323;28;20029;-66
2022/05/30 02:24:26;;;;;;;7.82;6.57;;;;;;;11.34;98.44;99771.22;5052386;28;20097;-66
2022/05/30 02:26:51;;;;;;;8.52;7.13;;;;;;;11.30;99.48;99771.66;5066005;28;20033;-66
2022/05/30 02:29:17;;;;;;;7.28;6.50;;;;;;;11.28;98.68;99774.50;5050166;28;20035;-66
2022/05/30 02:31:43;;;;;;;10.05;7.38;;;;;;;11.28;98.72;99779.88;5066780;28;20034;-66
2022/05/30 02:36:52;;;;;;;10.15;6.97;;;;;;;11.24;98.93;99791.06;5070104;28;20031;-66
2022/05/30 02:39:21;;;;;;;10.57;6.85;;;;;;;11.22;99.25;99801.94;5049073;28;20029;-66
2022/05/30 02:41:47;;;;;;;11.13;8.02;;;;;;;11.15;99.43;99791.97;5048505;28;20737;-66
2022/05/30 02:44:18;;;;;;;9.07;6.60;;;;;;;11.20;98.93;99800.44;5049891;28;20029;-66
2022/05/30 02:46:43;;;;;;;8.27;6.47;;;;;;;11.18;98.45;99799.72;5052937;28;20056;-66
2022/05/30 02:49:09;;;;;;;10.32;6.40;;;;;;;11.25;98.49;99817.75;5069664;28;20722;-65
2022/05/30 02:51:34;;;;;;;9.40;6.63;;;;;;;11.28;98.49;99821.97;5069727;28;20115;-66
2022/05/30 02:54:00;;;;;;;8.48;6.18;;;;;;;11.27;98.16;99814.91;5069827;28;20016;-66
2022/05/30 02:56:25;;;;;;;11.07;6.35;;;;;;;11.29;98.70;99827.19;5068118;28;20115;-66
2022/05/30 02:58:51;;;;;;;9.60;5.90;;;;;;;11.26;98.85;99816.75;5069843;28;20378;-66
2022/05/30 03:01:17;;;;;;;9.15;5.88;;;;;;;11.31;99.07;99810.94;5069729;28;20085;-66
2022/05/30 03:03:43;;;;;;;6.60;5.70;;;;;;;11.34;99.33;99814.16;5069266;28;20055;-66
2022/05/30 03:06:09;;;;;;;6.10;5.15;;;;;;;11.37;99.36;99827.28;5068445;28;20032;-66
2022/05/30 03:08:34;;;;;;;8.30;5.75;;;;;;;11.39;99.32;99814.53;5070056;28;20099;-66
2022/05/30 03:10:59;;;;;;;7.40;5.68;;;;;;;11.41;99.45;99823.31;5069879;28;20062;-66
2022/05/30 03:13:25;;;;;;;7.80;4.80;;;;;;;11.41;99.38;99823.31;5069498;28;20040;-66
2022/05/30 03:15:50;;;;;;;6.60;4.85;;;;;;;11.53;99.19;99834.66;5069484;28;20021;-66
2022/05/30 03:18:16;;;;;;;7.90;5.10;;;;;;;11.45;98.84;99824.69;5068954;28;20515;-66
2022/05/30 03:20:41;;;;;;;8.25;4.70;;;;;;;11.55;98.71;99838.88;5069314;28;20036;-66
2022/05/30 03:23:07;;;;;;;7.72;5.40;;;;;;;11.61;99.28;99852.72;5059948;28;20029;-66
2022/05/30 03:25:33;;;;;;;8.27;4.55;;;;;;;11.62;99.04;99852.59;5049517;28;20368;-66
2022/05/30 03:27:59;;;;;;;9.45;5.20;;;;;;;11.65;99.45;99857.66;5049155;28;20060;-66
2022/05/30 03:30:25;;;;;;;7.60;4.80;;;;;;;11.70;98.99;99851.84;5059791;28;20908;-66
2022/05/30 03:32:50;;;;;;;7.55;4.68;;;;;;;11.68;99.58;99849.28;5068915;28;20048;-66
2022/05/30 03:35:17;;;;;;;6.30;4.63;;;;;;;11.79;99.63;99858.94;5068910;28;20059;-66
2022/05/30 03:37:43;;;;;;;7.40;4.45;;;;;;;11.83;99.62;99863.03;5068898;28;20415;-66
2022/05/30 03:40:12;;;;;;;5.05;4.55;;;;;;;11.87;99.16;99867.09;5061719;28;20025;-66
2022/05/30 03:42:38;;;;;;;4.75;4.15;;;;;;;11.86;98.54;99849.31;5064743;28;20036;-66
2022/05/30 03:45:05;;;;;;;10.95;4.85;;;;;;;11.95;98.47;99867.16;5057330;28;20366;-65
2022/05/30 03:47:57;;;;;;;5.00;4.00;;;;;;;12.00;98.51;99870.25;5066858;28;20047;-66
2022/05/30 03:50:24;;;;;;;6.13;4.20;;;;;;;12.04;97.66;99869.78;5066304;28;20044;-66
2022/05/30 03:52:50;;;;;;;6.10;4.80;;;;;;;12.05;97.74;99873.28;5062163;28;20440;-66
2022/05/30 03:55:20;;;;;;;9.90;4.82;;;;;;;12.06;97.43;99864.25;5054761;28;20025;-65
2022/05/30 03:57:45;;;;;;;7.00;4.38;;;;;;;12.10;97.79;99863.78;5062147;28;20108;-65
2022/05/30 04:00:21;;;;;;;8.93;4.93;;;;;;;12.16;97.14;99863.16;5056655;28;20120;-66
2022/05/30 04:02:50;;;;;;;6.95;4.93;;;;;;;12.17;96.76;99850.56;5057738;28;20494;-66
2022/05/30 04:05:17;;;;;;;4.85;4.07;;;;;;;12.20;96.24;99850.25;5055110;28;20048;-66
2022/05/30 04:07:43;;;;;;;7.15;4.32;;;;;;;12.25;96.44;99848.78;5067826;28;20025;-66
2022/05/30 04:10:09;;;;;;;6.15;4.38;;;;;;;12.29;96.50;99842.06;5048461;28;20074;-66
2022/05/30 04:12:34;;;;;;;11.43;4.55;;;;;;;12.32;96.33;99849.00;5067888;28;20028;-66
2022/05/30 04:15:00;;;;;;;5.68;4.60;;;;;;;12.34;96.11;99852.38;5067777;28;20732;-67
2022/05/30 04:17:27;;;;;;;4.82;4.00;;;;;;;12.38;95.82;99864.50;5067784;28;20036;-66
2022/05/30 04:19:53;;;;;;;5.38;4.47;;;;;;;12.38;95.45;99868.03;5067967;28;20060;-65
2022/05/30 04:22:19;;;;;;;5.10;3.75;;;;;;;12.44;95.07;99882.69;5067381;28;20086;-67
2022/05/30 04:24:45;;;;;;;10.98;4.75;;;;;;;12.44;95.40;99872.78;5066145;28;20017;-67
2022/05/30 04:27:11;;;;;;;7.78;4.50;;;;;;;12.47;95.79;99875.16;5051515;28;20482;-67
2022/05/30 04:29:36;;;;;;;6.45;4.32;;;;;;;12.46;96.04;99868.09;5045945;28;20475;-67
2022/05/30 04:32:04;;;;;;;7.15;4.45;;;;;;;12.56;96.86;99882.28;5047595;28;20059;-67
2022/05/30 04:34:30;;;;;;;6.97;4.15;;;;;;;12.55;96.40;99874.38;5064177;28;20475;-66
2022/05/30 04:36:56;;;;;;;5.88;3.75;;;;;;;12.65;96.27;99893.94;5054388;28;20029;-66
2022/05/30 04:39:21;;;;;;;6.13;4.38;;;;;;;12.58;96.06;99884.81;5049807;28;20726;-67
2022/05/30 04:41:47;;;;;;;5.55;3.63;;;;;;;12.77;96.14;99916.91;5066637;28;20107;-67
2022/05/30 04:44:12;;;;;;;7.32;4.13;;;;;;;12.80;96.02;99913.91;5067388;28;20043;-67
2022/05/30 04:46:38;;;;;;;4.90;3.70;;;;;;;12.88;96.10;99911.25;5067464;28;20027;-67
2022/05/30 04:49:04;;;;;;;4.57;3.95;;;;;;;12.88;95.85;99900.47;5065215;28;20028;-67
2022/05/30 04:51:29;;;;;;;7.50;4.05;;;;;;;12.97;95.21;99915.69;5046864;28;20039;-66
2022/05/30 04:53:55;;;;;;;6.70;3.72;;;;;;;12.93;95.49;99903.56;5046682;28;20048;-67
2022/05/30 04:56:21;;;;;;;4.82;3.60;;;;;;;13.06;94.76;99906.69;5052350;28;20372;-66
2022/05/30 04:58:48;;;;;;;4.30;3.20;;;;;;;13.07;94.47;99905.66;5065786;28;20024;-66
2022/05/30 05:01:14;;;;;;;4.20;3.22;;;;;;;13.23;94.08;99930.00;5066772;28;20068;-66
2022/05/30 05:03:41;;;;;;;6.55;3.70;;;;;;;13.27;93.53;99925.97;5067294;28;20044;-67
2022/05/30 05:06:16;;;;;;;5.35;3.40;;;;;;;13.34;93.90;99927.00;5053025;28;20033;-66
2022/05/30 05:08:51;;;;;;;5.05;3.85;;;;;;;13.40;92.83;99915.56;5043856;28;20060;-66
2022/05/30 05:11:25;;;;;;;5.78;3.97;;;;;;;13.44;93.55;99915.09;5057941;28;20474;-66
2022/05/30 05:13:51;;;;;;;;;;;;;;;13.52;93.67;99922.38;5067598;28;20043;-66
2022/05/30 05:16:19;;;;;;;5.43;3.50;;;;;;;13.57;92.46;99910.09;5053824;28;19912;-66
2022/05/30 05:18:45;;;;;;;5.85;3.85;;;;;;;13.67;91.87;99918.03;5055157;28;20024;-66
2022/05/30 05:21:20;;;;;;;5.30;3.25;;;;;;;13.66;91.37;99914.50;5065065;28;20031;-66
2022/05/30 05:23:45;;;;;;;;;;;;;;;13.73;90.52;99927.34;5052898;28;20059;-66
2022/05/30 05:26:11;;;;;;;3.92;2.63;;;;;;;13.81;89.94;99924.63;5050702;28;19917;-66
2022/05/30 05:28:37;;;;;;;6.32;2.67;;;;;;;13.82;89.57;99918.22;5063910;28;20028;-66
2022/05/30 05:31:02;;;;;;;4.63;2.80;;;;;;;13.83;89.63;99920.75;5042860;28;21026;-66
2022/05/30 05:33:28;;;;;;;5.95;3.30;;;;;;;13.89;87.90;99925.50;5045016;28;20368;-66
2022/05/30 05:35:54;;;;;;;6.68;3.13;;;;;;;13.87;87.82;99916.75;5048454;28;20024;-66
2022/05/30 05:38:19;;;;;;;2.90;2.60;;;;;;;13.95;87.34;99916.75;5048250;28;20136;-66
2022/05/30 05:40:45;;;;;;;2.95;2.53;;;;;;;13.94;86.20;99914.22;5047074;28;20029;-66
2022/05/30 05:43:12;;;;;;;3.92;2.15;;;;;;;13.98;85.63;99921.81;5066184;28;20048;-66
2022/05/30 05:45:40;;;;;;;4.90;2.72;;;;;;;13.99;85.93;99928.88;5060614;28;20025;-66
2022/05/30 05:48:09;;;;;;;4.03;2.80;;;;;;;14.07;86.36;99937.00;5052669;28;20059;-66
2022/05/30 05:50:39;;;;;;;3.67;2.60;;;;;;;14.11;86.09;99935.66;5050013;28;20083;-66
2022/05/30 05:53:05;;;;;;;3.80;2.55;;;;;;;14.11;86.22;99940.19;5047240;28;20075;-66
2022/05/30 05:55:31;;;;;;;4.25;3.00;;;;;;;14.15;86.07;99939.69;5047270;28;20028;-66
2022/05/30 05:57:56;;;;;;;4.82;2.80;;;;;;;14.14;85.83;99946.13;5061179;28;20051;-66
2022/05/30 06:00:22;;;;;;;4.78;2.95;;;;;;;14.21;85.41;99951.66;5051080;28;20029;-65
2022/05/30 06:02:47;;;;;;;3.80;2.70;;;;;;;14.21;84.67;99941.72;5046939;28;20059;-65
2022/05/30 06:05:13;;;;;;;3.05;2.50;;;;;;;14.28;84.80;99944.66;5047184;28;20511;-65
2022/05/30 06:07:41;;;;;;;3.33;2.90;;;;;;;14.31;84.95;99949.72;5047425;28;20040;-65
2022/05/30 06:10:09;;;;;;;5.35;3.30;;;;;;;14.31;84.80;99945.16;5046896;28;20372;-65
2022/05/30 06:12:37;;;;;;;4.63;2.67;;;;;;;14.37;84.87;99955.28;5049334;28;20086;-66
2022/05/30 06:15:06;;;;;;;5.32;3.00;;;;;;;14.44;85.20;99960.84;5048254;28;20032;-65
2022/05/30 06:17:32;;;;;;;5.40;2.65;;;;;;;14.47;84.82;99966.75;5050333;28;20488;-64
2022/05/30 06:19:59;;;;;;;5.05;2.45;;;;;;;14.61;84.02;99984.13;5050285;28;20112;-65
2022/05/30 06:22:25;;;;;;;5.97;2.70;;;;;;;14.68;84.04;99994.09;5050493;28;20028;-65
2022/05/30 06:24:51;;;;;;;5.80;3.22;;;;;;;14.70;83.19;99992.06;5050378;28;20033;-66
2022/05/30 06:27:19;;;;;;;3.78;2.65;;;;;;;14.73;81.74;100005.22;5050345;28;20025;-65
2022/05/30 06:29:45;;;;;;;3.45;2.53;;;;;;;14.70;80.62;99991.22;5048844;28;20082;-65
2022/05/30 06:32:11;;;;;;;3.75;2.78;;;;;;;14.76;80.25;99994.06;5050280;28;20123;-66
2022/05/30 06:34:36;;;;;;;5.50;2.90;;;;;;;14.81;80.58;99996.28;5068401;28;20048;-65
2022/05/30 06:37:02;;;;;;;3.58;2.70;;;;;;;14.83;79.92;99996.97;5070302;28;20036;-65
2022/05/30 06:39:27;;;;;;;4.40;2.70;;;;;;;14.85;79.61;99984.13;5070103;28;20128;-65
2022/05/30 06:41:53;;;;;;;4.80;2.28;;;;;;;14.92;79.30;99988.66;5058964;28;20354;-65
2022/05/30 06:44:19;;;;;;;3.45;2.03;;;;;;;14.96;78.38;99981.91;5049863;28;20028;-65
2022/05/30 06:46:45;;;;;;;3.65;2.20;;;;;;;15.05;76.81;99971.94;5050072;28;20044;-65
2022/05/30 06:49:11;;;;;;;3.83;2.22;;;;;;;14.97;75.80;99964.72;5050031;28;20190;-65
2022/05/30 06:51:37;;;;;;;5.13;2.03;;;;;;;15.16;74.89;99982.41;5058447;28;20094;-65
2022/05/30 06:54:05;;;;;;;2.80;1.70;;;;;;;15.26;73.91;99989.28;5049790;28;20399;-65
2022/05/30 06:56:34;;;;;;;3.53;2.00;;;;;;;15.30;72.79;99997.91;5050360;28;20135;-65
2022/05/30 06:59:00;;;;;;;4.00;2.28;;;;;;;15.39;72.62;99996.91;5056994;28;20137;-65
2022/05/30 07:01:34;;;;;;;6.07;2.08;;;;;;;15.47;72.81;99997.72;5069646;28;20086;-65
2022/05/30 07:03:59;;;;;;;4.00;1.80;;;;;;;15.60;71.75;100005.25;5065254;28;20073;-65
2022/05/30 07:06:31;;;;;;;6.00;2.03;;;;;;;15.58;71.05;99986.50;5049938;28;20294;-66
2022/05/30 07:08:57;;;;;;;3.53;2.00;;;;;;;15.62;71.01;100004.09;5049761;28;20043;-66
2022/05/30 07:11:23;;;;;;;2.78;2.13;;;;;;;15.67;71.17;100026.03;5049812;28;20029;-65
2022/05/30 07:13:50;;;;;;;3.38;1.40;;;;;;;15.68;70.43;100022.28;5062039;28;20020;-65
2022/05/30 07:16:17;;;;;;;3.97;2.05;;;;;;;15.69;69.58;100012.34;5069758;28;20020;-65
2022/05/30 07:18:46;;;;;;;3.47;2.08;;;;;;;15.69;69.84;100015.03;5069390;28;20021;-65
2022/05/30 07:21:13;;;;;;;3.97;2.20;;;;;;;15.70;69.49;100011.31;5069204;28;20120;-65
2022/05/30 07:23:39;;;;;;;2.88;1.67;;;;;;;15.70;69.15;100017.56;5066628;28;20039;-65
2022/05/30 07:26:08;;;;;;;4.43;2.10;;;;;;;15.66;68.75;100008.13;5049314;28;20044;-65
2022/05/30 07:28:34;;;;;;;2.55;1.75;;;;;;;15.70;68.89;100006.75;5067669;28;20036;-65
2022/05/30 07:31:08;;;;;;;2.38;1.73;;;;;;;15.73;69.35;100011.81;5069086;28;20078;-65
2022/05/30 07:33:35;;;;;;;;;;;;;;;15.70;68.72;100006.75;5060265;28;20020;-65
2022/05/30 07:36:02;;;;;;;3.05;2.05;;;;;;;15.76;68.92;100016.03;5055055;28;20428;-65
2022/05/30 07:38:27;;;;;;;4.68;2.08;;;;;;;15.78;69.31;100020.25;5054161;28;20111;-65
2022/05/30 07:40:53;;;;;;;2.58;2.10;;;;;;;15.83;69.70;100009.75;5048848;28;20852;-65
2022/05/30 07:43:19;;;;;;;2.78;1.90;;;;;;;15.81;69.74;99989.31;5056664;28;20024;-65
2022/05/30 07:45:44;;;;;;;3.55;2.10;;;;;;;15.92;69.94;99994.31;5046137;28;20033;-65
2022/05/30 07:48:16;;;;;;;2.72;1.92;;;;;;;15.98;69.79;99985.50;5047531;28;20475;-65
2022/05/30 07:50:41;;;;;;;3.08;2.05;;;;;;;16.10;69.43;99984.09;5048848;28;20103;-65
2022/05/30 07:53:08;;;;;;;2.53;1.48;;;;;;;16.26;69.29;99986.69;5048743;28;20017;-64
2022/05/30 07:55:34;;;;;;;3.33;1.95;;;;;;;16.35;68.13;99991.00;5052842;28;20036;-64
2022/05/30 07:58:04;;;;;;;4.20;2.17;;;;;;;16.44;67.73;99997.28;5050615;28;20033;-65
2022/05/30 08:00:33;;;;;;;2.65;1.98;;;;;;;16.49;66.99;100005.69;5052950;28;20059;-65
2022/05/30 08:02:59;;;;;;;1.98;1.55;;;;;;;16.48;67.11;99993.19;5048583;28;20100;-65
2022/05/30 08:05:26;;;;;;;4.93;2.10;;;;;;;16.61;67.52;100004.25;5067391;28;20649;-65
2022/05/30 08:07:52;;;;;;;2.75;1.85;;;;;;;16.63;66.63;99999.47;5068321;28;20040;-65
2022/05/30 08:10:19;;;;;;;2.78;2.10;;;;;;;16.65;66.06;99998.28;5068694;28;20044;-65
2022/05/30 08:12:47;;;;;;;4.07;2.20;;;;;;;16.68;65.96;99999.78;5051645;28;20028;-65
2022/05/30 08:15:14;;;;;;;4.05;1.85;;;;;;;16.71;65.67;100007.53;5047788;28;20043;-65
2022/05/30 08:17:40;;;;;;;2.83;1.60;;;;;;;16.72;65.84;100010.09;5047796;28;20079;-66
2022/05/30 08:20:09;;;;;;;4.32;2.00;;;;;;;16.74;65.05;100021.59;5054795;28;20036;-66
2022/05/30 08:22:35;;;;;;;3.08;2.05;;;;;;;16.71;65.22;100031.91;5067808;28;20039;-65
2022/05/30 08:25:03;;;;;;;4.75;1.67;;;;;;;16.76;65.25;100034.91;5060978;28;20108;-65
2022/05/30 08:27:30;;;;;;;3.95;1.88;;;;;;;16.71;65.37;100024.66;5068086;28;20028;-65
2022/05/30 08:29:56;;;;;;;3.00;1.45;;;;;;;16.74;65.92;100028.84;5067856;28;20531;-65
2022/05/30 08:32:22;;;;;;;3.03;1.70;;;;;;;16.66;65.36;100018.06;5067547;28;20040;-65
2022/05/30 08:34:48;;;;;;;2.53;1.33;;;;;;;16.70;65.57;100031.06;5066138;28;20406;-65
2022/05/30 08:37:13;;;;;;;2.10;1.63;;;;;;;16.65;65.66;100022.66;5049411;28;20086;-65
2022/05/30 08:42:29;;;;;;;3.97;2.40;;;;;;;16.68;65.75;100035.00;5067688;28;20038;-65
2022/05/30 08:44:55;;;;;;;2.70;1.83;;;;;;;16.67;66.13;100027.91;5065935;28;20044;-65
2022/05/30 08:47:35;;;;;;;3.15;2.10;;;;;;;16.66;68.41;100032.47;5064538;28;20029;-65
2022/05/30 08:50:36;;;;;;;3.45;2.10;;;;;;;16.70;68.62;100035.66;5064067;28;20090;-64
2022/05/30 08:53:08;;;;;;;4.68;1.90;;;;;;;16.71;68.56;100038.19;5067666;28;20474;-65
2022/05/30 08:55:43;;;;;;;4.47;2.20;;;;;;;16.73;68.70;100049.66;5066243;28;20111;-65
2022/05/30 08:58:41;;;;;;;4.40;2.10;;;;;;;16.73;69.56;100057.78;5066115;28;20024;-65
2022/05/30 09:01:17;;;;;;;2.13;1.85;;;;;;;16.73;69.71;100059.69;5044649;28;20047;-64
2022/05/30 09:04:16;;;;;;;3.30;1.60;;;;;;;16.74;69.93;100058.66;5047295;28;20102;-65
2022/05/30 09:06:47;;;;;;;4.45;1.90;;;;;;;16.76;69.12;100053.88;5047516;28;20029;-65
2022/05/30 09:09:24;;;;;;;4.10;1.70;;;;;;;16.77;68.81;100055.59;5047373;28;20033;-65
2022/05/30 09:12:02;;;;;;;5.22;2.50;;;;;;;16.75;69.64;100057.63;5048328;28;20104;-65
2022/05/30 09:14:37;;;;;;;4.10;1.60;;;;;;;16.75;71.11;100053.06;5049141;28;20033;-65
2022/05/30 09:17:05;;;;;;;3.92;1.80;;;;;;;16.76;71.77;100049.31;5053843;28;20033;-66
2022/05/30 09:19:31;;;;;;;4.72;2.03;;;;;;;16.73;70.65;100043.44;5047342;28;20024;-66
2022/05/30 09:22:01;;;;;;;2.60;1.77;;;;;;;16.69;70.75;100044.78;5047012;28;20387;-66
2022/05/30 09:24:30;;;;;;;4.35;1.88;;;;;;;16.77;70.96;100061.81;5047225;28;20025;-66
2022/05/30 09:26:57;;;;;;;6.93;2.53;;;;;;;16.80;70.27;100066.06;5047147;28;20383;-66
2022/05/30 09:29:31;;;;;;;3.55;2.33;;;;;;;16.81;70.53;100070.44;5047581;28;20767;-67
2022/05/30 09:32:08;;;;;;;6.38;2.10;;;;;;;16.82;71.68;100074.81;5047109;28;20041;-66
2022/05/30 09:34:40;;;;;;;4.18;1.77;;;;;;;16.86;72.32;100081.59;5047018;28;20028;-66
2022/05/30 09:37:06;;;;;;;2.47;2.10;;;;;;;16.94;72.91;100065.25;5055060;28;20021;-66
2022/05/30 09:39:47;;;;;;;4.20;1.90;;;;;;;16.98;73.40;100074.72;5057936;28;20024;-67
2022/05/30 09:42:29;;;;;;;4.90;2.60;;;;;;;17.01;71.12;100071.63;5066944;28;20052;-66
2022/05/30 09:45:07;;;;;;;6.82;2.05;;;;;;;17.00;71.23;100067.25;5056415;28;20063;-66
2022/05/30 09:47:34;;;;;;;2.72;1.92;;;;;;;17.03;70.62;100078.56;5067932;28;20036;-67
2022/05/30 09:50:20;;;;;;;4.40;1.92;;;;;;;17.07;70.10;100074.47;5064208;28;20331;-66
2022/05/30 09:52:46;;;;;;;6.45;1.98;;;;;;;17.08;70.93;100078.88;5050764;28;20144;-67
2022/05/30 09:55:42;;;;;;;4.25;2.15;;;;;;;17.12;72.39;100082.88;5049278;28;20107;-66
2022/05/30 09:58:07;;;;;;;3.10;2.22;;;;;;;17.16;73.61;100086.91;5050630;28;20116;-67
2022/05/30 10:00:42;;;;;;;2.58;2.00;;;;;;;17.16;73.74;100084.19;5063672;28;20181;-67
2022/05/30 10:03:29;;;;;;;5.22;2.60;;;;;;;17.16;74.25;100084.19;5066868;28;20025;-67
2022/05/30 10:06:21;;;;;;;3.80;2.10;;;;;;;17.14;73.93;100091.69;5049065;28;20052;-67
2022/05/30 10:08:47;;;;;;;4.78;2.25;;;;;;;17.17;74.81;100096.75;5051115;28;20055;-66
2022/05/30 10:11:35;;;;;;;2.60;1.98;;;;;;;17.15;74.29;100079.00;5062520;28;20021;-67
2022/05/30 10:14:17;;;;;;;3.67;2.15;;;;;;;17.09;72.22;100068.88;5058173;28;20031;-67
2022/05/30 10:16:43;;;;;;;5.20;2.08;;;;;;;17.18;71.19;100081.31;5068958;28;20024;-67
2022/05/30 10:19:12;;;;;;;3.95;2.33;;;;;;;17.24;70.60;100072.44;5056296;28;20032;-66
2022/05/30 10:30:29;;;;;;;4.63;1.98;;;;;;;17.53;68.57;100092.38;5070131;28;20093;-66
2022/05/30 10:33:17;;;;;;;4.57;1.50;;;;;;;17.59;67.84;100088.94;5058269;28;20037;-66
2022/05/30 10:36:15;;;;;;;2.97;1.90;;;;;;;17.62;68.35;100080.44;5048523;28;20028;-66
2022/05/30 10:39:07;;;;;;;4.50;1.95;;;;;;;17.65;64.84;100090.91;5047607;28;20406;-65
2022/05/30 10:41:47;;;;;;;2.88;1.27;;;;;;;17.65;63.60;100099.03;5050004;28;20043;-66
2022/05/30 10:44:33;;;;;;;4.40;1.73;;;;;;;17.67;61.87;100083.41;5048165;28;20032;-65
2022/05/30 10:47:05;;;;;;;4.05;1.73;;;;;;;17.67;60.26;100088.00;5065588;28;20032;-65
2022/05/30 10:49:46;;;;;;;2.90;1.70;;;;;;;17.68;60.36;100095.13;5069754;28;20095;-66
2022/05/30 10:52:24;;;;;;;3.80;1.83;;;;;;;17.66;59.72;100087.16;5069729;28;20381;-66
2022/05/30 10:55:00;;;;;;;3.53;1.50;;;;;;;17.71;59.41;100081.19;5069648;28;20081;-66
2022/05/30 10:57:43;;;;;;;3.00;1.70;;;;;;;17.71;58.42;100092.03;5056855;28;20039;-66
2022/05/30 11:00:22;;;;;;;2.45;1.30;;;;;;;17.74;58.62;100097.91;5068306;28;20498;-66
2022/05/30 11:02:58;;;;;;;1.90;1.20;;;;;;;17.74;58.04;100091.66;5068607;28;20028;-66
2022/05/30 11:05:30;;;;;;;4.22;1.55;;;;;;;17.75;57.99;100096.06;5063480;28;20126;-66
2022/05/30 11:08:09;;;;;;;3.25;1.63;;;;;;;17.67;58.36;100075.28;5068652;28;20028;-66
2022/05/30 11:10:44;;;;;;;4.95;1.48;;;;;;;17.77;58.17;100083.16;5049936;28;20526;-66
2022/05/30 11:13:18;;;;;;;2.88;1.85;;;;;;;17.79;58.68;100090.06;5049646;28;20492;-66
2022/05/30 11:15:59;;;;;;;3.30;1.95;;;;;;;17.84;59.44;100095.75;5049351;28;20535;-66
2022/05/30 11:18:37;;;;;;;2.17;1.60;;;;;;;17.98;60.00;100097.66;5061996;28;20123;-66
2022/05/30 11:21:27;;;;;;;7.30;2.63;;;;;;;18.06;59.88;100091.28;5069210;28;20016;-67
2022/05/30 11:23:53;;;;;;;3.20;1.92;;;;;;;18.17;59.40;100092.66;5057633;28;20379;-67
2022/05/30 11:26:56;;;;;;;2.63;1.30;;;;;;;18.25;58.16;100090.69;5049093;28;20029;-66
2022/05/30 11:29:49;;;;;;;2.20;1.20;;;;;;;18.37;57.03;100097.38;5049213;28;20709;-67
2022/05/30 11:32:24;;;;;;;3.33;1.40;;;;;;;18.43;56.89;100091.19;5048824;28;20041;-66
2022/05/30 11:35:08;;;;;;;2.22;1.23;;;;;;;18.50;56.50;100099.41;5048803;28;20119;-66
2022/05/30 11:37:33;;;;;;;4.30;1.70;;;;;;;18.55;56.15;100089.66;5048898;28;20040;-65
2022/05/30 11:40:19;;;;;;;2.60;1.75;;;;;;;18.58;56.02;100093.88;5063007;28;20032;-65
2022/05/30 11:43:05;;;;;;;2.92;1.70;;;;;;;18.63;55.27;100099.56;5055155;28;20047;-66
2022/05/30 11:45:51;;;;;;;4.10;1.70;;;;;;;18.60;54.99;100102.69;5066642;28;20028;-65
2022/05/30 11:48:34;;;;;;;3.17;1.85;;;;;;;18.56;55.33;100102.19;5067197;28;20040;-65
2022/05/30 11:51:11;;;;;;;3.50;1.90;;;;;;;18.56;55.02;100096.78;5068665;28;20024;-65
2022/05/30 11:53:52;;;;;;;3.85;1.98;;;;;;;18.56;56.69;100102.19;5067027;28;20121;-65
2022/05/30 11:56:31;;;;;;;6.30;2.40;;;;;;;18.56;57.24;100096.78;5068548;28;20035;-66
2022/05/30 11:59:11;;;;;;;2.40;1.80;;;;;;;18.57;56.69;100097.63;5068692;28;20130;-66
2022/05/30 12:01:41;;;;;;;5.43;2.38;;;;;;;18.49;56.47;100087.69;5048241;28;20036;-66
2022/05/30 12:04:19;;;;;;;4.05;2.40;;;;;;;18.56;56.86;100109.50;5048245;28;20567;-65